Time;durP1;ratioP1;P1;durP2;ratioP2;P2;SDS_P1;SDS_P2;PMS_P1;PMS_P2;Temp;Humidity;BMP_temperature;BMP_pressure;BME280_temperature;BME280_humidity;BME280_pressure;Samples;Min_cycle;Max_cycle;Signal;HPM_P1;HPM_P2
2024/01/27 00:00:26;;;;;;;0.70;0.70;;;18.30;59.80;;;;;;5059492;28;20186;-76
2024/01/27 00:02:52;;;;;;;0.90;0.90;;;18.40;59.80;;;;;;5063511;28;20193;-76
2024/01/27 00:05:18;;;;;;;1.00;0.90;;;18.40;59.80;;;;;;5064051;28;20214;-76
2024/01/27 00:07:44;;;;;;;1.20;0.80;;;18.40;59.80;;;;;;5057830;28;20229;-76
2024/01/27 00:10:09;;;;;;;0.77;0.77;;;18.30;59.80;;;;;;5068412;28;20284;-76
2024/01/27 00:12:36;;;;;;;1.02;0.93;;;18.30;59.80;;;;;;5051941;28;20183;-76
2024/01/27 00:15:02;;;;;;;1.17;0.88;;;18.40;59.80;;;;;;5046202;28;20282;-76
2024/01/27 00:17:28;;;;;;;1.02;1.00;;;18.40;59.80;;;;;;5055553;28;20299;-75
2024/01/27 00:19:54;;;;;;;1.23;1.00;;;18.30;59.70;;;;;;5054766;28;20193;-76
2024/01/27 00:22:20;;;;;;;1.50;0.90;;;18.40;59.80;;;;;;5056447;28;20190;-76
2024/01/27 00:24:46;;;;;;;1.48;0.88;;;18.30;59.70;;;;;;5041591;28;20212;-76
2024/01/27 00:27:12;;;;;;;0.93;0.82;;;18.30;59.60;;;;;;5051065;28;20289;-76
2024/01/27 00:29:38;;;;;;;1.63;1.00;;;18.40;59.80;;;;;;5034555;28;20254;-76
2024/01/27 00:32:04;;;;;;;1.30;1.00;;;18.30;59.70;;;;;;5058272;28;20182;-76
2024/01/27 00:34:30;;;;;;;1.13;0.93;;;18.30;59.60;;;;;;5065048;28;20634;-76
2024/01/27 00:36:55;;;;;;;1.10;1.00;;;18.30;59.60;;;;;;5051430;28;20197;-76
2024/01/27 00:39:22;;;;;;;1.30;1.13;;;18.30;59.60;;;;;;5052343;28;20190;-75
2024/01/27 00:41:48;;;;;;;1.20;1.10;;;18.30;59.60;;;;;;5051008;28;20187;-75
2024/01/27 00:44:14;;;;;;;1.00;0.90;;;18.40;59.70;;;;;;5050921;28;20210;-75
2024/01/27 00:46:39;;;;;;;1.27;1.00;;;18.30;59.60;;;;;;5058090;28;20240;-76
2024/01/27 00:49:05;;;;;;;1.63;1.38;;;18.30;59.50;;;;;;5054849;28;20217;-76
2024/01/27 00:51:31;;;;;;;1.27;1.15;;;18.30;59.50;;;;;;5036691;28;20197;-75
2024/01/27 00:53:57;;;;;;;1.38;1.20;;;18.30;59.60;;;;;;5060490;28;20181;-76
2024/01/27 00:56:23;;;;;;;1.48;1.10;;;18.30;59.50;;;;;;5054289;28;20206;-76
2024/01/27 00:58:48;;;;;;;1.30;1.20;;;18.30;59.60;;;;;;5055386;28;20324;-76
2024/01/27 01:01:14;;;;;;;1.13;1.02;;;18.30;59.50;;;;;;5039448;28;20222;-75
2024/01/27 01:03:40;;;;;;;1.30;1.10;;;18.30;59.50;;;;;;5050643;28;20198;-76
2024/01/27 01:06:06;;;;;;;1.23;1.13;;;18.30;59.50;;;;;;5038260;28;20364;-75
2024/01/27 01:08:32;;;;;;;1.95;1.17;;;18.30;59.40;;;;;;5055140;28;20304;-76
2024/01/27 01:10:58;;;;;;;2.08;1.33;;;18.30;59.50;;;;;;5057202;28;20194;-76
2024/01/27 01:13:24;;;;;;;1.40;1.30;;;18.30;59.40;;;;;;5050575;28;20183;-76
2024/01/27 01:15:50;;;;;;;1.10;1.00;;;18.30;59.40;;;;;;5085694;28;20601;-75
2024/01/27 01:18:15;;;;;;;1.58;1.10;;;18.30;59.40;;;;;;5038216;28;20198;-76
2024/01/27 01:20:41;;;;;;;1.25;1.15;;;18.30;59.40;;;;;;5046761;28;20194;-76
2024/01/27 01:23:07;;;;;;;1.38;1.20;;;18.30;59.40;;;;;;5051648;28;20182;-75
2024/01/27 01:25:33;;;;;;;2.13;1.20;;;18.30;59.30;;;;;;5050296;28;20206;-75
2024/01/27 01:27:59;;;;;;;1.35;1.25;;;18.30;59.20;;;;;;5056637;28;20210;-76
2024/01/27 01:30:24;;;;;;;1.48;1.35;;;18.30;59.20;;;;;;5033950;28;20198;-76
2024/01/27 01:32:51;;;;;;;1.63;1.20;;;18.30;59.20;;;;;;5054125;28;20204;-76
2024/01/27 01:35:16;;;;;;;1.92;1.35;;;18.30;59.20;;;;;;5078557;28;20217;-76
2024/01/27 01:37:42;;;;;;;1.52;1.42;;;18.30;59.20;;;;;;5045368;28;20672;-75
2024/01/27 01:40:09;;;;;;;1.75;1.30;;;18.30;59.20;;;;;;5050215;28;20193;-75
2024/01/27 01:42:34;;;;;;;1.45;1.35;;;18.30;59.20;;;;;;5050197;28;20193;-75
2024/01/27 01:45:00;;;;;;;1.90;1.30;;;18.20;59.20;;;;;;5052876;28;20209;-76
2024/01/27 01:47:26;;;;;;;1.10;1.00;;;18.30;59.20;;;;;;5038691;28;20186;-76
2024/01/27 01:49:53;;;;;;;1.20;1.10;;;18.20;59.20;;;;;;5051234;28;20285;-76
2024/01/27 01:52:20;;;;;;;1.35;1.20;;;18.20;59.20;;;;;;5051459;28;20217;-76
2024/01/27 01:54:50;;;;;;;1.90;1.42;;;18.20;59.20;;;;;;5057913;28;20213;-76
2024/01/27 01:57:16;;;;;;;1.33;1.23;;;18.20;59.20;;;;;;5049943;28;20197;-76
2024/01/27 01:59:42;;;;;;;1.30;1.05;;;18.20;59.10;;;;;;5051590;28;20213;-75
2024/01/27 02:02:09;;;;;;;1.40;1.30;;;18.20;59.20;;;;;;5054285;28;20191;-74
2024/01/27 02:04:43;;;;;;;1.27;1.17;;;18.30;59.20;;;;;;5038413;28;20236;-76
2024/01/27 02:07:09;;;;;;;1.33;1.00;;;18.20;59.20;;;;;;5048710;28;20183;-76
2024/01/27 02:09:35;;;;;;;1.20;1.10;;;18.20;59.20;;;;;;5055289;28;20195;-75
2024/01/27 02:12:01;;;;;;;1.20;1.10;;;18.20;59.20;;;;;;5054173;28;20224;-76
2024/01/27 02:14:27;;;;;;;1.40;1.30;;;18.20;59.20;;;;;;5053691;28;20214;-75
2024/01/27 02:16:54;;;;;;;1.00;0.90;;;18.20;59.20;;;;;;5060865;28;20727;-76
2024/01/27 02:19:20;;;;;;;1.20;1.10;;;18.20;59.20;;;;;;5053936;28;20653;-76
2024/01/27 02:21:46;;;;;;;1.52;1.42;;;18.20;59.10;;;;;;5055477;28;20224;-75
2024/01/27 02:24:11;;;;;;;1.20;1.10;;;18.20;59.20;;;;;;5044802;28;20182;-76
2024/01/27 02:26:37;;;;;;;1.60;1.30;;;18.20;59.20;;;;;;5058999;28;20190;-76
2024/01/27 02:29:03;;;;;;;1.38;1.27;;;18.20;59.20;;;;;;5089961;28;20282;-76
2024/01/27 02:31:29;;;;;;;1.17;1.08;;;18.20;59.20;;;;;;5056496;28;20261;-76
2024/01/27 02:33:55;;;;;;;1.02;1.02;;;18.20;59.80;;;;;;5053460;28;20194;-76
2024/01/27 02:36:20;;;;;;;1.30;1.20;;;18.20;59.20;;;;;;5070155;28;20206;-76
2024/01/27 02:38:46;;;;;;;1.10;1.00;;;18.20;59.10;;;;;;5053181;28;20190;-75
2024/01/27 02:41:12;;;;;;;1.50;1.40;;;18.20;59.20;;;;;;5060148;28;20190;-75
2024/01/27 02:43:38;;;;;;;1.85;1.42;;;18.20;59.20;;;;;;5051970;28;20248;-76
2024/01/27 02:46:13;;;;;;;1.33;1.20;;;18.20;59.10;;;;;;5055795;28;20264;-75
2024/01/27 02:48:42;;;;;;;1.33;1.23;;;18.20;59.20;;;;;;5043422;28;20205;-76
2024/01/27 02:51:09;;;;;;;1.50;1.40;;;18.20;59.10;;;;;;5091982;28;20190;-76
2024/01/27 02:53:35;;;;;;;1.60;1.50;;;18.20;59.10;;;;;;5036726;28;20195;-75
2024/01/27 02:56:01;;;;;;;1.80;1.60;;;18.20;59.20;;;;;;5056273;28;20218;-75
2024/01/27 02:58:27;;;;;;;1.50;1.40;;;18.20;59.10;;;;;;5067015;28;20201;-76
2024/01/27 03:00:53;;;;;;;1.50;1.40;;;18.10;58.90;;;;;;5059428;28;20198;-76
2024/01/27 03:03:18;;;;;;;1.52;1.42;;;18.20;59.00;;;;;;5066649;28;20319;-76
2024/01/27 03:05:44;;;;;;;1.63;1.33;;;18.20;59.00;;;;;;5036872;28;20270;-76
2024/01/27 03:08:10;;;;;;;1.23;1.10;;;18.20;59.00;;;;;;5053036;28;20206;-75
2024/01/27 03:10:36;;;;;;;1.77;1.50;;;18.20;58.90;;;;;;5029828;28;20184;-76
2024/01/27 03:13:02;;;;;;;1.67;1.38;;;18.20;58.90;;;;;;5053176;28;20205;-76
2024/01/27 03:15:28;;;;;;;1.23;1.13;;;18.20;58.90;;;;;;5053799;28;20285;-76
2024/01/27 03:17:54;;;;;;;1.40;1.30;;;18.10;58.80;;;;;;5053893;28;20289;-76
2024/01/27 03:20:20;;;;;;;1.60;1.50;;;18.20;58.90;;;;;;5036326;28;20194;-75
2024/01/27 03:22:46;;;;;;;1.83;1.02;;;18.20;58.90;;;;;;5062204;28;20201;-76
2024/01/27 03:25:11;;;;;;;2.03;1.67;;;18.20;58.80;;;;;;5097687;28;20269;-76
2024/01/27 03:27:37;;;;;;;1.30;1.20;;;18.20;58.90;;;;;;5058870;28;20220;-76
2024/01/27 03:30:04;;;;;;;1.42;1.30;;;18.10;58.80;;;;;;5086415;28;20194;-76
2024/01/27 03:32:33;;;;;;;1.20;1.10;;;18.20;58.90;;;;;;5052954;28;20198;-76
2024/01/27 03:35:03;;;;;;;1.50;1.40;;;18.10;58.80;;;;;;5058106;28;20202;-76
2024/01/27 03:37:29;;;;;;;1.30;1.20;;;18.10;58.80;;;;;;5071616;28;20641;-76
2024/01/27 03:39:55;;;;;;;1.50;1.27;;;18.10;58.70;;;;;;5057103;28;20202;-74
2024/01/27 03:42:21;;;;;;;1.20;1.20;;;18.10;58.80;;;;;;5057401;28;20216;-75
2024/01/27 03:44:47;;;;;;;1.20;1.10;;;18.10;58.80;;;;;;5056552;28;20206;-76
2024/01/27 03:47:14;;;;;;;1.60;1.40;;;18.10;58.70;;;;;;5044502;28;20228;-76
2024/01/27 03:49:39;;;;;;;1.73;1.60;;;18.10;58.60;;;;;;5051794;28;20244;-75
2024/01/27 03:52:05;;;;;;;1.38;1.27;;;18.10;58.70;;;;;;5065135;28;20199;-76
2024/01/27 03:54:31;;;;;;;1.58;1.40;;;18.10;58.70;;;;;;5056170;28;20217;-76
2024/01/27 03:56:56;;;;;;;1.50;1.13;;;18.10;58.70;;;;;;5053862;28;20194;-76
2024/01/27 03:59:22;;;;;;;1.30;1.20;;;18.10;58.60;;;;;;5068139;28;20197;-76
2024/01/27 04:01:48;;;;;;;1.40;1.30;;;18.10;58.60;;;;;;5060669;28;20187;-76
2024/01/27 04:04:14;;;;;;;1.38;1.27;;;18.10;58.60;;;;;;5067194;28;20189;-76
2024/01/27 04:06:40;;;;;;;1.75;1.30;;;18.10;58.70;;;;;;5065176;28;20190;-76
2024/01/27 04:09:08;;;;;;;1.30;1.20;;;18.10;58.60;;;;;;5057637;28;20303;-76
2024/01/27 04:11:39;;;;;;;1.60;1.50;;;18.10;58.60;;;;;;5052159;28;20186;-76
2024/01/27 04:14:06;;;;;;;1.42;1.30;;;18.10;58.60;;;;;;5051422;28;20221;-76
2024/01/27 04:16:32;;;;;;;1.70;1.13;;;18.10;58.60;;;;;;5035060;28;20186;-76
2024/01/27 04:18:58;;;;;;;1.55;1.45;;;18.10;58.50;;;;;;5051542;28;20194;-76
2024/01/27 04:21:24;;;;;;;1.42;1.20;;;18.10;58.60;;;;;;5051543;28;20190;-76
2024/01/27 04:23:50;;;;;;;1.30;1.20;;;18.10;58.60;;;;;;5072202;28;20202;-76
2024/01/27 04:26:16;;;;;;;1.30;1.00;;;18.10;58.60;;;;;;5072226;28;20310;-76
2024/01/27 04:28:41;;;;;;;1.25;1.15;;;18.10;58.50;;;;;;5052547;28;20222;-76
2024/01/27 04:31:07;;;;;;;2.15;1.38;;;18.10;58.60;;;;;;5036727;28;20186;-76
2024/01/27 04:33:33;;;;;;;1.60;1.40;;;18.10;58.60;;;;;;5057231;28;20184;-76
2024/01/27 04:35:59;;;;;;;1.40;1.30;;;18.10;59.20;;;;;;5072043;28;20214;-75
2024/01/27 04:38:24;;;;;;;2.03;1.70;;;18.10;58.50;;;;;;5056262;28;20601;-76
2024/01/27 04:40:51;;;;;;;2.42;1.60;;;18.10;58.60;;;;;;5052541;28;20669;-76
2024/01/27 04:43:20;;;;;;;2.45;1.88;;;18.10;58.50;;;;;;5083111;28;20177;-76
2024/01/27 04:45:47;;;;;;;2.15;1.83;;;18.10;58.50;;;;;;5051304;28;20220;-76
2024/01/27 04:48:13;;;;;;;1.80;1.70;;;18.10;59.10;;;;;;5059340;28;20704;-76
2024/01/27 04:50:38;;;;;;;1.80;1.70;;;18.00;58.40;;;;;;5059286;28;20273;-76
2024/01/27 04:53:04;;;;;;;1.85;1.52;;;18.10;58.40;;;;;;5050962;28;20700;-76
2024/01/27 04:55:30;;;;;;;1.73;1.23;;;18.00;58.30;;;;;;5056560;28;20210;-75
2024/01/27 04:57:58;;;;;;;1.73;1.63;;;18.10;58.40;;;;;;5050802;28;20201;-76
2024/01/27 05:00:26;;;;;;;1.95;1.75;;;18.10;58.30;;;;;;5043897;28;20256;-75
2024/01/27 05:02:52;;;;;;;1.73;1.52;;;18.10;58.30;;;;;;5067421;28;20214;-76
2024/01/27 05:05:18;;;;;;;1.65;1.48;;;18.10;58.30;;;;;;5053430;28;20264;-76
2024/01/27 05:07:44;;;;;;;1.50;1.40;;;18.10;58.40;;;;;;5041396;28;20297;-76
2024/01/27 05:10:15;;;;;;;1.58;1.48;;;18.10;58.90;;;;;;5070822;28;20658;-76
2024/01/27 05:12:41;;;;;;;2.40;1.60;;;18.00;58.30;;;;;;5054030;28;20186;-76
2024/01/27 05:15:08;;;;;;;1.50;1.40;;;18.10;58.90;;;;;;5054775;28;20271;-76
2024/01/27 05:17:34;;;;;;;1.65;1.55;;;18.00;58.20;;;;;;5036327;28;20181;-76
2024/01/27 05:19:59;;;;;;;2.03;1.40;;;18.00;58.20;;;;;;5055078;28;20212;-75
2024/01/27 05:22:25;;;;;;;2.47;1.55;;;18.10;58.30;;;;;;5042338;28;20205;-76
2024/01/27 05:24:51;;;;;;;1.67;1.58;;;18.00;58.30;;;;;;5075367;28;20214;-76
2024/01/27 05:27:16;;;;;;;1.60;1.40;;;18.10;58.30;;;;;;5072594;28;20210;-76
2024/01/27 05:29:42;;;;;;;1.67;1.55;;;18.00;58.20;;;;;;5051144;28;20203;-75
2024/01/27 05:32:08;;;;;;;1.85;1.48;;;18.00;58.20;;;;;;5071599;28;20198;-76
2024/01/27 05:34:34;;;;;;;1.30;1.17;;;18.00;58.20;;;;;;5038569;28;20221;-76
2024/01/27 05:37:00;;;;;;;2.65;1.88;;;18.10;58.30;;;;;;5066825;28;20179;-76
2024/01/27 05:39:25;;;;;;;1.83;1.55;;;18.00;58.20;;;;;;5058737;28;20658;-76
2024/01/27 05:41:51;;;;;;;2.08;1.42;;;18.00;58.20;;;;;;5070390;28;20190;-76
2024/01/27 05:44:17;;;;;;;1.50;1.40;;;18.00;58.20;;;;;;5035405;28;20196;-76
2024/01/27 05:46:42;;;;;;;1.42;1.30;;;18.10;58.20;;;;;;5057708;28;20221;-76
2024/01/27 05:49:08;;;;;;;1.92;1.60;;;18.00;58.20;;;;;;5067571;28;20225;-75
2024/01/27 05:51:34;;;;;;;1.48;1.38;;;18.10;58.20;;;;;;5052345;28;20246;-75
2024/01/27 05:54:00;;;;;;;1.50;1.40;;;18.00;58.10;;;;;;5059230;28;20190;-76
2024/01/27 05:56:25;;;;;;;2.17;1.73;;;18.10;58.20;;;;;;5052956;28;20217;-76
2024/01/27 05:58:51;;;;;;;1.77;1.33;;;18.10;58.10;;;;;;5055782;28;20543;-75
2024/01/27 06:01:19;;;;;;;1.73;1.30;;;18.10;58.10;;;;;;5050398;28;20190;-76
2024/01/27 06:03:45;;;;;;;1.60;1.50;;;18.00;58.10;;;;;;5055549;28;20255;-76
2024/01/27 06:06:11;;;;;;;1.85;1.52;;;18.00;58.10;;;;;;5049981;28;20210;-76
2024/01/27 06:08:37;;;;;;;2.35;1.70;;;18.00;58.10;;;;;;5052589;28;20221;-76
2024/01/27 06:11:06;;;;;;;2.08;1.63;;;18.00;58.10;;;;;;5038664;28;20182;-76
2024/01/27 06:13:33;;;;;;;1.67;1.25;;;18.00;58.10;;;;;;5058810;28;20264;-74
2024/01/27 06:15:59;;;;;;;1.60;1.50;;;18.00;58.10;;;;;;5053699;28;20211;-76
2024/01/27 06:18:25;;;;;;;1.70;1.60;;;18.00;58.10;;;;;;5060714;28;20277;-76
2024/01/27 06:20:51;;;;;;;1.73;1.60;;;18.00;58.00;;;;;;5053585;28;20186;-76
2024/01/27 06:23:16;;;;;;;1.90;1.70;;;18.00;58.10;;;;;;5051041;28;20578;-75
2024/01/27 06:25:43;;;;;;;1.80;1.70;;;18.00;58.10;;;;;;5049614;28;20217;-76
2024/01/27 06:28:08;;;;;;;1.92;1.77;;;18.00;58.10;;;;;;5050727;28;20206;-76
2024/01/27 06:30:34;;;;;;;2.05;1.85;;;18.00;58.00;;;;;;5052071;28;20182;-76
2024/01/27 06:33:00;;;;;;;2.20;1.98;;;18.00;57.90;;;;;;5051009;28;20190;-76
2024/01/27 06:35:26;;;;;;;1.95;1.85;;;18.00;58.00;;;;;;5082935;28;20215;-76
2024/01/27 06:37:51;;;;;;;2.10;1.90;;;18.00;58.00;;;;;;5049884;28;20187;-76
2024/01/27 06:40:17;;;;;;;2.25;2.05;;;18.00;58.00;;;;;;5048556;28;20182;-76
2024/01/27 06:42:43;;;;;;;2.80;1.80;;;18.00;57.90;;;;;;5082565;28;20239;-75
2024/01/27 06:45:09;;;;;;;2.15;1.95;;;18.00;57.90;;;;;;5059966;28;20214;-75
2024/01/27 06:47:35;;;;;;;2.10;1.90;;;18.00;57.80;;;;;;5089204;28;20193;-76
2024/01/27 06:50:00;;;;;;;2.30;2.10;;;18.00;57.90;;;;;;5055597;28;20186;-76
2024/01/27 06:52:26;;;;;;;2.20;2.00;;;18.00;57.90;;;;;;5057396;28;20189;-76
2024/01/27 06:54:52;;;;;;;2.20;2.00;;;18.00;57.90;;;;;;5052876;28;20268;-76
2024/01/27 06:57:22;;;;;;;2.35;2.10;;;18.00;57.80;;;;;;5054005;28;20193;-76
2024/01/27 06:59:52;;;;;;;2.47;2.28;;;17.90;57.80;;;;;;5058763;28;20174;-76
2024/01/27 07:02:28;;;;;;;2.28;2.03;;;18.00;57.90;;;;;;5036322;28;20262;-75
2024/01/27 07:04:55;;;;;;;2.50;2.30;;;17.90;57.80;;;;;;5047473;28;20237;-76
2024/01/27 07:07:26;;;;;;;2.20;2.00;;;17.90;57.80;;;;;;5083175;28;20193;-75
2024/01/27 07:09:55;;;;;;;2.33;2.13;;;18.00;57.80;;;;;;5048429;28;20649;-74
2024/01/27 07:12:21;;;;;;;2.20;2.00;;;17.90;57.80;;;;;;5053110;28;20190;-74
2024/01/27 07:14:47;;;;;;;2.17;1.98;;;18.00;57.90;;;;;;5057422;28;20203;-74
2024/01/27 07:17:13;;;;;;;2.75;2.13;;;17.90;57.80;;;;;;5055202;28;20217;-74
2024/01/27 07:19:39;;;;;;;2.38;2.13;;;17.90;57.80;;;;;;5039383;28;20185;-75
2024/01/27 07:22:05;;;;;;;2.80;2.50;;;17.90;57.70;;;;;;5053831;28;20226;-74
2024/01/27 07:24:31;;;;;;;1.98;1.85;;;18.00;57.80;;;;;;5054157;28;20232;-75
2024/01/27 07:27:00;;;;;;;2.67;2.40;;;17.90;57.70;;;;;;5052819;28;20202;-75
2024/01/27 07:29:26;;;;;;;2.80;2.50;;;17.90;57.60;;;;;;5054113;28;20214;-74
2024/01/27 07:31:53;;;;;;;3.20;2.90;;;17.90;57.70;;;;;;5082318;28;20189;-75
2024/01/27 07:34:19;;;;;;;2.58;2.30;;;18.00;57.70;;;;;;5053386;28;20186;-75
2024/01/27 07:36:45;;;;;;;3.85;3.35;;;18.00;57.60;;;;;;5055211;28;20248;-74
2024/01/27 07:39:11;;;;;;;4.50;3.00;;;17.90;57.60;;;;;;5070618;28;20182;-74
2024/01/27 07:41:37;;;;;;;3.50;3.10;;;17.90;57.60;;;;;;5056485;28;20217;-74
2024/01/27 07:44:14;;;;;;;4.28;3.63;;;17.90;57.60;;;;;;5060368;28;20218;-74
2024/01/27 07:46:41;;;;;;;3.53;3.22;;;18.00;57.70;;;;;;5069066;28;20186;-74
2024/01/27 07:49:08;;;;;;;4.57;3.70;;;17.90;57.60;;;;;;5052364;28;20202;-75
2024/01/27 07:51:34;;;;;;;3.90;3.50;;;18.00;57.70;;;;;;5056138;28;20189;-75
2024/01/27 07:54:01;;;;;;;5.25;4.03;;;17.90;57.70;;;;;;5055952;28;20191;-75
2024/01/27 07:56:27;;;;;;;5.40;4.10;;;17.90;57.60;;;;;;5055813;28;20210;-75
2024/01/27 07:58:53;;;;;;;5.35;4.50;;;17.90;57.50;;;;;;5053931;28;20241;-74
2024/01/27 08:01:20;;;;;;;7.28;4.28;;;18.00;57.70;;;;;;5055196;28;20232;-74
2024/01/27 08:03:46;;;;;;;5.82;4.53;;;18.00;57.60;;;;;;5035754;28;20267;-74
2024/01/27 08:06:30;;;;;;;6.20;5.15;;;18.00;57.60;;;;;;5087814;28;20240;-74
2024/01/27 08:08:56;;;;;;;6.07;5.15;;;18.00;57.60;;;;;;5054121;28;20207;-75
2024/01/27 08:11:21;;;;;;;5.97;4.88;;;17.90;57.50;;;;;;5054125;28;20202;-75
2024/01/27 08:13:48;;;;;;;5.40;4.80;;;17.90;57.40;;;;;;5036107;28;20216;-75
2024/01/27 08:16:14;;;;;;;6.63;5.43;;;17.90;57.40;;;;;;5055193;28;20198;-75
2024/01/27 08:18:42;;;;;;;7.07;5.32;;;18.00;57.60;;;;;;5062160;28;20209;-74
2024/01/27 08:21:08;;;;;;;6.90;5.80;;;18.00;57.50;;;;;;5059045;28;20189;-74
2024/01/27 08:23:34;;;;;;;6.40;5.65;;;18.00;57.50;;;;;;5053830;28;20191;-74
2024/01/27 08:26:00;;;;;;;7.85;5.60;;;17.90;57.50;;;;;;5041729;28;20301;-75
2024/01/27 08:28:26;;;;;;;6.38;5.70;;;18.00;57.50;;;;;;5060506;28;20222;-74
2024/01/27 08:30:52;;;;;;;7.00;6.30;;;18.00;58.10;;;;;;5060926;28;20243;-74
2024/01/27 08:33:18;;;;;;;7.05;6.07;;;18.00;57.40;;;;;;5052552;28;20186;-74
2024/01/27 08:35:47;;;;;;;7.63;6.10;;;18.00;57.60;;;;;;5053667;28;20209;-74
2024/01/27 08:38:14;;;;;;;7.88;6.32;;;17.90;57.40;;;;;;5052365;28;20201;-74
2024/01/27 08:40:39;;;;;;;7.75;6.93;;;17.90;57.50;;;;;;5052693;28;20196;-74
2024/01/27 08:43:05;;;;;;;8.18;6.43;;;18.00;57.60;;;;;;5052902;28;20198;-74
2024/01/27 08:45:32;;;;;;;6.85;6.15;;;17.90;57.50;;;;;;5059979;28;20297;-74
2024/01/27 08:47:58;;;;;;;7.65;6.85;;;18.00;57.50;;;;;;5085981;28;20252;-74
2024/01/27 08:50:24;;;;;;;7.80;6.97;;;18.00;57.50;;;;;;5085870;28;20337;-74
2024/01/27 08:52:50;;;;;;;7.65;6.95;;;17.90;57.40;;;;;;5053501;28;20278;-74
2024/01/27 08:55:18;;;;;;;7.85;7.05;;;18.00;57.50;;;;;;5059436;28;20209;-74
2024/01/27 08:57:46;;;;;;;8.23;7.43;;;17.90;57.40;;;;;;5052264;28;20591;-75
2024/01/27 09:00:13;;;;;;;7.88;7.00;;;17.90;57.40;;;;;;5052113;28;20191;-75
2024/01/27 09:02:38;;;;;;;8.00;6.88;;;18.00;57.50;;;;;;5085301;28;20190;-75
2024/01/27 09:05:05;;;;;;;7.53;6.82;;;18.00;57.50;;;;;;5031713;28;20218;-75
2024/01/27 09:07:31;;;;;;;8.85;7.25;;;17.90;57.40;;;;;;5050793;28;20190;-75
2024/01/27 09:09:57;;;;;;;8.55;6.90;;;17.90;57.40;;;;;;5050603;28;20684;-75
2024/01/27 09:12:23;;;;;;;7.60;6.28;;;17.90;57.40;;;;;;5051671;28;20194;-75
2024/01/27 09:14:48;;;;;;;7.13;6.43;;;18.00;57.40;;;;;;5051003;28;20277;-75
2024/01/27 09:17:14;;;;;;;7.35;6.60;;;18.00;57.40;;;;;;5051362;28;20190;-75
2024/01/27 09:19:40;;;;;;;7.18;6.20;;;17.90;57.30;;;;;;5059054;28;20190;-75
2024/01/27 09:22:05;;;;;;;7.50;6.50;;;17.90;57.40;;;;;;5034277;28;20289;-75
2024/01/27 09:24:31;;;;;;;7.05;6.18;;;17.90;57.30;;;;;;5034021;28;20214;-75
2024/01/27 09:26:57;;;;;;;7.43;6.63;;;17.90;57.40;;;;;;5084474;28;20198;-75
2024/01/27 09:29:23;;;;;;;6.97;6.00;;;18.00;57.40;;;;;;5034465;28;20244;-74
2024/01/27 09:31:50;;;;;;;7.53;6.25;;;18.00;57.40;;;;;;5044272;28;20286;-75
2024/01/27 09:34:16;;;;;;;8.95;6.45;;;18.00;57.40;;;;;;5051733;28;20188;-75
2024/01/27 09:36:42;;;;;;;6.50;5.80;;;18.00;57.40;;;;;;5049935;28;20188;-74
2024/01/27 09:39:08;;;;;;;6.10;5.50;;;18.00;57.40;;;;;;5034373;28;20724;-75
2024/01/27 09:41:34;;;;;;;6.25;5.40;;;18.00;57.40;;;;;;5060080;28;20197;-74
2024/01/27 09:44:02;;;;;;;6.57;5.80;;;18.00;57.40;;;;;;5061854;28;20185;-74
2024/01/27 09:46:31;;;;;;;6.15;5.30;;;18.00;57.40;;;;;;5070330;28;20186;-74
2024/01/27 09:48:57;;;;;;;6.15;5.40;;;18.00;57.40;;;;;;5070050;28;20221;-75
2024/01/27 09:51:23;;;;;;;5.82;5.22;;;18.00;57.40;;;;;;5053953;28;20273;-75
2024/01/27 09:53:52;;;;;;;5.80;5.10;;;18.10;57.70;;;;;;5070671;28;20177;-75
2024/01/27 09:56:18;;;;;;;6.13;5.43;;;18.00;57.40;;;;;;5055950;28;20202;-75
2024/01/27 09:58:45;;;;;;;6.15;5.53;;;18.00;57.40;;;;;;5067011;28;20194;-75
2024/01/27 10:01:12;;;;;;;6.05;5.35;;;18.10;57.50;;;;;;5056466;28;20189;-74
2024/01/27 10:03:41;;;;;;;5.90;5.30;;;18.00;57.40;;;;;;5054136;28;20244;-74
2024/01/27 10:06:10;;;;;;;5.22;4.72;;;18.10;57.50;;;;;;5038956;28;20279;-74
2024/01/27 10:08:37;;;;;;;6.05;5.30;;;18.10;57.50;;;;;;5056167;28;20206;-74
2024/01/27 10:11:12;;;;;;;6.07;5.47;;;18.10;57.60;;;;;;5033343;28;20179;-73
2024/01/27 10:13:39;;;;;;;5.10;4.60;;;18.10;57.60;;;;;;5031877;28;20237;-73
2024/01/27 10:16:09;;;;;;;4.63;4.07;;;18.10;57.60;;;;;;5090349;28;20254;-73
2024/01/27 10:18:35;;;;;;;5.10;4.60;;;18.10;57.60;;;;;;5058255;28;20192;-73
2024/01/27 10:21:14;;;;;;;4.93;4.53;;;18.10;57.60;;;;;;5051490;28;20194;-73
2024/01/27 10:23:40;;;;;;;4.97;4.50;;;18.10;57.70;;;;;;5057652;28;20253;-73
2024/01/27 10:26:09;;;;;;;5.13;4.63;;;18.10;57.60;;;;;;5060366;28;20604;-73
2024/01/27 10:28:35;;;;;;;4.45;4.05;;;18.10;57.70;;;;;;5053813;28;20213;-74
2024/01/27 10:31:11;;;;;;;5.22;4.72;;;18.10;57.70;;;;;;5067320;28;20178;-73
2024/01/27 10:33:50;;;;;;;5.35;4.30;;;18.10;57.70;;;;;;5054297;28;20201;-73
2024/01/27 10:36:16;;;;;;;4.63;4.20;;;18.10;57.70;;;;;;5060531;28;20213;-73
2024/01/27 10:38:42;;;;;;;4.60;4.10;;;18.10;57.70;;;;;;5060128;28;20185;-73
2024/01/27 10:41:12;;;;;;;4.93;4.40;;;18.10;57.70;;;;;;5054096;28;20186;-73
2024/01/27 10:43:39;;;;;;;5.03;3.97;;;18.10;57.80;;;;;;5057745;28;20213;-73
2024/01/27 10:46:08;;;;;;;4.03;3.58;;;18.10;57.70;;;;;;5088159;28;20284;-73
2024/01/27 10:48:36;;;;;;;4.22;3.65;;;18.10;57.70;;;;;;5057655;28;20239;-74
2024/01/27 10:51:10;;;;;;;4.63;4.15;;;18.10;57.80;;;;;;5061801;28;20570;-73
2024/01/27 10:53:37;;;;;;;4.85;3.70;;;18.10;57.70;;;;;;5071697;28;20324;-72
2024/01/27 10:56:09;;;;;;;4.72;4.22;;;18.10;57.70;;;;;;5052592;28;20198;-73
2024/01/27 10:58:41;;;;;;;5.05;3.58;;;18.10;57.80;;;;;;5060125;28;20191;-73
2024/01/27 11:01:11;;;;;;;3.90;3.60;;;18.10;57.70;;;;;;5064194;28;20190;-73
2024/01/27 11:03:39;;;;;;;4.07;3.67;;;18.10;57.70;;;;;;5054541;28;20278;-73
2024/01/27 11:06:11;;;;;;;4.55;3.78;;;18.10;57.80;;;;;;5040928;28;20296;-74
2024/01/27 11:08:39;;;;;;;4.22;3.83;;;18.10;57.80;;;;;;5071142;28;20214;-74
2024/01/27 11:11:05;;;;;;;3.60;3.13;;;18.10;57.80;;;;;;5061359;28;20189;-74
2024/01/27 11:13:33;;;;;;;4.13;3.67;;;18.10;57.70;;;;;;5059991;28;20220;-74
2024/01/27 11:15:58;;;;;;;4.35;3.60;;;18.10;57.80;;;;;;5047187;28;20202;-74
2024/01/27 11:18:29;;;;;;;4.03;2.90;;;18.10;57.80;;;;;;5061102;28;20210;-74
2024/01/27 11:20:58;;;;;;;3.60;3.28;;;18.10;57.80;;;;;;5059918;28;20210;-74
2024/01/27 11:23:33;;;;;;;3.80;2.90;;;18.10;57.80;;;;;;5036545;28;20187;-74
2024/01/27 11:26:06;;;;;;;3.72;3.40;;;18.20;57.80;;;;;;5048822;28;20264;-74
2024/01/27 11:28:32;;;;;;;3.10;2.80;;;18.10;57.80;;;;;;5072510;28;20209;-75
2024/01/27 11:31:02;;;;;;;3.40;3.08;;;18.10;57.70;;;;;;5055440;28;20268;-74
2024/01/27 11:33:28;;;;;;;3.20;2.90;;;18.10;57.70;;;;;;5054598;28;20191;-74
2024/01/27 11:36:05;;;;;;;3.10;2.65;;;18.10;57.70;;;;;;5058589;28;20243;-74
2024/01/27 11:38:32;;;;;;;3.38;3.08;;;18.10;57.70;;;;;;5055350;28;20246;-74
2024/01/27 11:41:01;;;;;;;4.55;3.38;;;18.10;57.80;;;;;;5054602;28;20186;-73
2024/01/27 11:43:26;;;;;;;3.75;3.28;;;18.10;57.70;;;;;;5060745;28;20204;-74
2024/01/27 11:46:00;;;;;;;3.70;3.20;;;18.20;57.80;;;;;;5052314;28;20274;-74
2024/01/27 11:48:26;;;;;;;3.72;3.28;;;18.10;57.80;;;;;;5052364;28;20237;-74
2024/01/27 11:51:11;;;;;;;3.03;2.75;;;18.10;57.80;;;;;;5059812;28;20591;-74
2024/01/27 11:53:38;;;;;;;3.15;2.72;;;18.20;57.80;;;;;;5053161;28;20178;-74
2024/01/27 11:56:04;;;;;;;3.35;3.05;;;18.10;57.70;;;;;;5048448;28;20198;-74
2024/01/27 11:58:31;;;;;;;4.10;2.90;;;18.20;57.70;;;;;;5053188;28;20256;-74
2024/01/27 12:00:58;;;;;;;3.42;3.13;;;18.20;57.70;;;;;;5096469;28;20192;-74
2024/01/27 12:03:25;;;;;;;3.40;3.10;;;18.10;57.60;;;;;;5039406;28;20187;-73
2024/01/27 12:05:50;;;;;;;2.70;2.50;;;18.10;57.70;;;;;;5051881;28;20228;-74
2024/01/27 12:08:17;;;;;;;4.05;2.90;;;18.20;57.70;;;;;;5063503;28;20193;-74
2024/01/27 12:10:43;;;;;;;3.03;2.72;;;18.20;57.80;;;;;;5053420;28;20186;-74
2024/01/27 12:13:09;;;;;;;2.75;2.47;;;18.20;57.70;;;;;;5058369;28;20182;-74
2024/01/27 12:15:35;;;;;;;3.20;2.70;;;18.10;57.70;;;;;;5057818;28;20208;-74
2024/01/27 12:18:01;;;;;;;3.70;2.70;;;18.10;57.70;;;;;;5097724;28;20190;-74
2024/01/27 12:20:27;;;;;;;3.22;2.90;;;18.20;57.60;;;;;;5051689;28;20194;-74
2024/01/27 12:23:13;;;;;;;2.83;2.33;;;18.20;57.50;;;;;;5033634;28;20202;-74
2024/01/27 12:25:39;;;;;;;2.60;2.40;;;18.20;57.50;;;;;;5056822;28;20237;-74
2024/01/27 12:28:09;;;;;;;3.40;2.63;;;18.20;57.60;;;;;;5051506;28;20214;-74
2024/01/27 12:30:34;;;;;;;2.47;2.20;;;18.20;57.60;;;;;;5057465;28;20269;-74
2024/01/27 12:33:01;;;;;;;3.22;2.58;;;18.10;57.50;;;;;;5064686;28;20239;-74
2024/01/27 12:35:29;;;;;;;2.42;2.22;;;18.20;57.60;;;;;;5040797;28;20209;-74
2024/01/27 12:37:54;;;;;;;2.70;2.50;;;18.20;57.60;;;;;;5057201;28;20571;-74
2024/01/27 12:40:21;;;;;;;2.60;2.40;;;18.20;57.50;;;;;;5043033;28;20183;-74
2024/01/27 12:42:48;;;;;;;2.40;2.20;;;18.10;57.50;;;;;;5053215;28;20194;-74
2024/01/27 12:45:14;;;;;;;2.63;2.40;;;18.20;57.50;;;;;;5055836;28;20288;-74